createdAt,value
2018-02-19T00:00:36.499Z,100812.52
2018-02-19T00:03:38.111Z,100808.38
2018-02-19T00:06:39.464Z,100804.84
2018-02-19T00:09:40.820Z,100799.90
2018-02-19T00:12:42.210Z,100793.34
2018-02-19T00:15:43.629Z,100797.14
2018-02-19T00:18:45.694Z,100798.35
2018-02-19T00:21:47.024Z,100791.34
2018-02-19T00:24:48.362Z,100793.36
2018-02-19T00:27:51.041Z,100792.93
2018-02-19T00:30:52.504Z,100785.54
2018-02-19T00:33:54.597Z,100782.47
2018-02-19T00:36:56.761Z,100777.62
2018-02-19T00:39:58.526Z,100766.78
2018-02-19T00:42:59.890Z,100761.50
2018-02-19T00:46:02.626Z,100759.71
2018-02-19T00:49:05.329Z,100755.48
2018-02-19T00:52:07.718Z,100751.02
2018-02-19T00:55:10.841Z,100757.41
2018-02-19T00:58:12.940Z,100750.02
2018-02-19T01:01:34.862Z,100746.50
2018-02-19T01:04:40.175Z,100737.01
2018-02-19T01:07:42.271Z,100735.73
2018-02-19T01:10:44.623Z,100743.38
2018-02-19T01:13:47.407Z,100736.60
2018-02-19T01:16:52.888Z,100732.71
2018-02-19T01:20:09.473Z,100738.69
2018-02-19T01:23:11.048Z,100732.77
2018-02-19T01:26:12.358Z,100723.59
2018-02-19T01:29:13.691Z,100713.62
2018-02-19T01:32:15.009Z,100714.09
2018-02-19T01:35:16.350Z,100716.66
2018-02-19T01:38:17.661Z,100719.97
2018-02-19T01:41:18.971Z,100701.09
2018-02-19T01:44:20.287Z,100700.80
2018-02-19T01:47:21.635Z,100699.27
2018-02-19T01:50:22.982Z,100691.48
2018-02-19T01:53:24.318Z,100688.84
2018-02-19T01:56:25.675Z,100688.94
2018-02-19T01:59:27.028Z,100682.33
2018-02-19T02:02:28.398Z,100676.22
2018-02-19T02:05:29.723Z,100684.53
2018-02-19T02:08:31.798Z,100672.05
2018-02-19T02:11:33.129Z,100664.33
2018-02-19T02:14:34.439Z,100668.05
2018-02-19T02:17:35.792Z,100666.70
2018-02-19T02:20:37.199Z,100657.81
2018-02-19T02:23:38.506Z,100650.56
2018-02-19T02:26:46.836Z,100655.58
2018-02-19T02:29:48.186Z,100656.57
2018-02-19T02:32:49.499Z,100643.67
2018-02-19T02:35:50.846Z,100651.64
2018-02-19T02:38:52.149Z,100652.23
2018-02-19T02:41:53.499Z,100647.22
2018-02-19T02:44:54.795Z,100640.60
2018-02-19T02:47:56.140Z,100636.20
2018-02-19T02:50:58.202Z,100645.53
2018-02-19T02:53:59.516Z,100641.48
2018-02-19T02:57:01.601Z,100632.26
2018-02-19T03:00:03.892Z,100631.46
2018-02-19T03:03:05.194Z,100616.77
2018-02-19T03:06:08.302Z,100639.94
2018-02-19T03:09:09.592Z,100638.56
2018-02-19T03:12:11.655Z,100639.19
2018-02-19T03:15:12.990Z,100645.64
2018-02-19T03:18:14.311Z,100642.77
2018-02-19T03:21:15.650Z,100637.22
2018-02-19T03:24:17.006Z,100653.45
2018-02-19T03:27:19.070Z,100653.53
2018-02-19T03:30:20.492Z,100655.56
2018-02-19T03:33:22.532Z,100660.98
2018-02-19T03:36:23.852Z,100656.88
2018-02-19T03:39:25.290Z,100655.20
2018-02-19T03:42:26.620Z,100646.13
2018-02-19T03:45:28.712Z,100649.20
2018-02-19T03:48:30.060Z,100637.95
2018-02-19T03:51:31.595Z,100638.55
2018-02-19T03:54:33.663Z,100633.86
2018-02-19T03:57:36.117Z,100626.14
2018-02-19T04:00:37.629Z,100622.83
2018-02-19T04:03:38.970Z,100616.70
2018-02-19T04:06:41.064Z,100625.03
2018-02-19T04:09:43.132Z,100612.17
2018-02-19T04:12:48.291Z,100601.00
2018-02-19T04:15:49.650Z,100597.69
2018-02-19T04:18:50.957Z,100615.48
2018-02-19T04:21:52.279Z,100596.47
2018-02-19T04:24:54.705Z,100594.35
2018-02-19T04:27:56.027Z,100585.87
2018-02-19T04:30:57.370Z,100571.02
2018-02-19T04:33:58.702Z,100574.59
2018-02-19T04:37:00.791Z,100574.38
2018-02-19T04:40:02.145Z,100566.64
2018-02-19T04:43:17.415Z,100573.86
2018-02-19T04:49:53.412Z,100560.83
2018-02-19T04:52:55.178Z,100559.09
2018-02-19T04:55:56.500Z,100561.45
2018-02-19T04:58:57.815Z,100561.27
2018-02-19T05:01:59.124Z,100550.84
2018-02-19T05:05:00.448Z,100562.97
2018-02-19T05:08:02.522Z,100553.59
2018-02-19T05:11:03.843Z,100552.28
2018-02-19T05:14:05.876Z,100536.92
2018-02-19T05:17:07.223Z,100543.47
2018-02-19T05:20:09.307Z,100539.81
2018-02-19T05:23:11.407Z,100533.77
2018-02-19T05:26:13.459Z,100529.23
2018-02-19T05:29:14.769Z,100528.08
2018-02-19T05:32:16.084Z,100540.91
2018-02-19T05:35:17.431Z,100541.80
2018-02-19T05:38:18.754Z,100539.55
2018-02-19T05:41:20.140Z,100540.86
2018-02-19T05:44:21.549Z,100530.84
2018-02-19T05:47:22.877Z,100535.05
2018-02-19T05:50:24.211Z,100534.77
2018-02-19T05:53:27.030Z,100536.59
2018-02-19T05:56:28.359Z,100533.66
2018-02-19T05:59:29.640Z,100524.23
2018-02-19T06:02:30.973Z,100530.58
2018-02-19T06:05:32.324Z,100540.92
2018-02-19T06:08:33.651Z,100540.41
2018-02-19T06:11:35.704Z,100541.30
2018-02-19T06:14:37.036Z,100545.80
2018-02-19T06:17:39.159Z,100539.13
2018-02-19T06:20:40.494Z,100557.50
2018-02-19T06:23:41.796Z,100553.91
2018-02-19T06:26:43.869Z,100544.96
2018-02-19T06:29:45.224Z,100541.13
2018-02-19T06:32:46.551Z,100550.39
2018-02-19T06:35:48.655Z,100551.88
2018-02-19T06:38:50.732Z,100553.55
2018-02-19T06:41:52.199Z,100564.71
2018-02-19T06:44:53.528Z,100567.55
2018-02-19T06:47:54.872Z,100582.69
2018-02-19T06:50:56.226Z,100581.30
2018-02-19T06:53:57.583Z,100583.33
2018-02-19T06:56:59.177Z,100580.69
2018-02-19T07:00:00.519Z,100570.14
2018-02-19T07:03:02.654Z,100588.11
2018-02-19T07:06:03.992Z,100578.48
2018-02-19T07:09:06.036Z,100569.08
2018-02-19T07:12:07.382Z,100552.81
2018-02-19T07:15:09.454Z,100560.70
2018-02-19T07:18:10.777Z,100554.48
2018-02-19T07:21:12.145Z,100561.06
2018-02-19T07:24:14.203Z,100564.20
2018-02-19T07:27:15.556Z,100549.88
2018-02-19T07:30:16.876Z,100539.13
2018-02-19T07:33:18.307Z,100551.53
2018-02-19T07:36:19.766Z,100544.17
2018-02-19T07:39:21.130Z,100530.98
2018-02-19T07:42:22.484Z,100526.62
2018-02-19T07:45:23.935Z,100528.44
2018-02-19T07:48:25.266Z,100519.27
2018-02-19T07:51:26.603Z,100517.23
2018-02-19T07:54:27.917Z,100518.48
2018-02-19T07:57:29.251Z,100529.10
2018-02-19T08:00:30.600Z,100517.14
2018-02-19T08:03:32.640Z,100515.74
2018-02-19T08:06:33.995Z,100506.27
2018-02-19T08:09:35.301Z,100507.94
2018-02-19T08:12:36.630Z,100505.47
2018-02-19T08:15:38.009Z,100511.19
2018-02-19T08:18:39.515Z,100505.91
2018-02-19T08:21:41.587Z,100504.57
2018-02-19T08:24:42.931Z,100515.47
2018-02-19T08:27:44.266Z,100517.10
2018-02-19T08:30:46.310Z,100509.75
2018-02-19T08:33:47.624Z,100507.01
2018-02-19T08:36:49.029Z,100503.95
2018-02-19T08:39:51.139Z,100489.73
2018-02-19T08:42:52.450Z,100497.91
2018-02-19T08:45:53.825Z,100497.84
2018-02-19T08:52:03.288Z,100487.78
2018-02-19T08:55:05.442Z,100495.98
2018-02-19T08:58:07.282Z,100483.53
2018-02-19T09:01:08.700Z,100483.40
2018-02-19T09:04:10.049Z,100479.48
2018-02-19T09:07:12.193Z,100480.78
2018-02-19T09:10:13.561Z,100469.38
2018-02-19T09:13:15.321Z,100466.36
2018-02-19T09:16:16.995Z,100480.00
2018-02-19T09:19:19.154Z,100480.71
2018-02-19T09:22:20.461Z,100471.33
2018-02-19T09:25:21.827Z,100478.02
2018-02-19T09:28:23.948Z,100465.02
2018-02-19T09:31:25.234Z,100475.84
2018-02-19T09:34:27.316Z,100467.63
2018-02-19T09:37:28.785Z,100459.92
2018-02-19T09:40:30.193Z,100467.08
2018-02-19T09:43:31.652Z,100345.71
2018-02-19T09:46:33.057Z,100464.52
2018-02-19T09:49:34.354Z,100466.42
2018-02-19T09:52:36.601Z,100477.36
2018-02-19T09:55:38.075Z,100476.61
2018-02-19T09:58:39.467Z,100476.28
2018-02-19T10:01:40.889Z,100476.74
2018-02-19T10:04:42.374Z,100484.58
2018-02-19T10:07:44.498Z,100489.88
2018-02-19T10:10:45.913Z,100487.73
2018-02-19T10:13:47.302Z,100476.78
2018-02-19T10:16:48.688Z,100455.11
2018-02-19T10:19:50.109Z,100471.32
2018-02-19T10:22:52.261Z,100470.19
2018-02-19T10:25:53.670Z,100473.91
2018-02-19T10:28:55.786Z,100455.92
2018-02-19T10:31:57.906Z,100461.88
2018-02-19T10:34:59.249Z,100460.05
2018-02-19T10:38:00.598Z,100436.63
2018-02-19T10:41:02.031Z,100456.11
2018-02-19T10:47:45.770Z,100446.84
2018-02-19T10:50:47.598Z,100455.72
2018-02-19T10:53:49.400Z,100449.16
2018-02-19T10:56:50.958Z,100450.46
2018-02-19T10:59:52.401Z,100446.91
2018-02-19T11:02:53.780Z,100436.30
2018-02-19T11:05:55.970Z,100429.55
2018-02-19T11:08:57.318Z,100429.41
2018-02-19T11:11:58.689Z,100429.30
2018-02-19T11:15:00.079Z,100432.48
2018-02-19T11:18:01.502Z,100433.84
2018-02-19T11:21:02.889Z,100431.17
2018-02-19T11:24:04.269Z,100425.03
2018-02-19T11:27:05.738Z,100429.59
2018-02-19T11:30:07.150Z,100422.86
2018-02-19T11:33:08.499Z,100419.23
2018-02-19T11:36:09.882Z,100411.84
2018-02-19T11:39:11.228Z,100418.89
2018-02-19T11:42:12.567Z,100420.92
2018-02-19T11:45:14.602Z,100405.66
2018-02-19T11:48:15.952Z,100404.03
2018-02-19T11:51:18.019Z,100408.88
2018-02-19T11:54:19.346Z,100389.54
2018-02-19T11:57:20.681Z,100394.16
2018-02-19T12:00:21.987Z,100390.46
2018-02-19T12:03:24.057Z,100393.71
2018-02-19T12:06:25.386Z,100394.48
2018-02-19T12:09:26.739Z,100389.27
2018-02-19T12:12:28.819Z,100381.37
2018-02-19T12:15:30.630Z,100393.63
2018-02-19T12:18:32.682Z,100360.89
2018-02-19T12:21:34.795Z,100375.73
2018-02-19T12:24:36.097Z,100367.30
2018-02-19T12:27:37.423Z,100369.80
2018-02-19T12:30:38.754Z,100367.70
2018-02-19T12:33:40.830Z,100366.83
2018-02-19T12:36:42.190Z,100366.56
2018-02-19T12:39:43.544Z,100358.08
2018-02-19T12:42:44.882Z,100348.85
2018-02-19T12:45:46.200Z,100350.27
2018-02-19T12:48:47.578Z,100337.77
2018-02-19T12:51:48.973Z,100350.98
2018-02-19T12:54:50.324Z,100335.77
2018-02-19T12:57:52.442Z,100329.66
2018-02-19T13:00:53.790Z,100323.97
2018-02-19T13:03:55.131Z,100331.98
2018-02-19T13:06:56.533Z,100325.08
2018-02-19T13:09:57.859Z,100331.96
2018-02-19T13:12:59.205Z,100329.00
2018-02-19T13:16:00.544Z,100322.68
2018-02-19T13:19:01.884Z,100322.42
2018-02-19T13:22:04.018Z,100316.49
2018-02-19T13:25:05.324Z,100306.05
2018-02-19T13:28:06.651Z,100317.77
2018-02-19T13:31:08.743Z,100316.13
2018-02-19T13:34:10.787Z,100309.91
2018-02-19T13:37:12.140Z,100309.02
2018-02-19T13:40:13.505Z,100307.73
2018-02-19T13:43:15.622Z,100305.50
2018-02-19T13:46:16.963Z,100309.27
2018-02-19T13:49:18.278Z,100300.38
2018-02-19T13:52:19.633Z,100305.06
2018-02-19T13:55:20.926Z,100296.38
2018-02-19T13:58:23.006Z,100298.39
2018-02-19T14:01:24.320Z,100287.79
2018-02-19T14:04:25.671Z,100291.06
2018-02-19T14:07:27.022Z,100292.28
2018-02-19T14:10:28.371Z,100290.33
2018-02-19T14:13:29.739Z,100286.14
2018-02-19T14:16:31.067Z,100274.33
2018-02-19T14:19:32.399Z,100278.86
2018-02-19T14:22:33.771Z,100277.83
2018-02-19T14:25:35.841Z,100278.82
2018-02-19T14:28:37.161Z,100270.31
2018-02-19T14:31:38.557Z,100273.74
2018-02-19T14:34:39.876Z,100274.56
2018-02-19T14:37:41.233Z,100266.47
2018-02-19T14:40:43.279Z,100272.49
2018-02-19T14:43:45.425Z,100273.88
2018-02-19T14:46:46.913Z,100266.02
2018-02-19T14:49:48.255Z,100265.95
2018-02-19T14:52:49.614Z,100273.05
2018-02-19T14:55:51.693Z,100263.55
2018-02-19T14:58:53.017Z,100256.86
2018-02-19T15:01:54.432Z,100261.78
2018-02-19T15:04:55.815Z,100253.87
2018-02-19T15:07:57.157Z,100254.66
2018-02-19T15:10:58.494Z,100254.72
2018-02-19T15:13:59.815Z,100261.47
2018-02-19T15:17:01.170Z,100258.89
2018-02-19T15:20:02.529Z,100254.53
2018-02-19T15:23:03.869Z,100254.81
2018-02-19T15:26:05.216Z,100260.20
2018-02-19T15:29:06.579Z,100259.84
2018-02-19T15:32:07.883Z,100251.73
2018-02-19T15:35:09.997Z,100259.80
2018-02-19T15:38:11.333Z,100256.58
2018-02-19T15:41:12.618Z,100257.53
2018-02-19T15:44:13.951Z,100245.59
2018-02-19T15:47:15.307Z,100246.41
2018-02-19T15:50:17.399Z,100244.66
2018-02-19T15:53:19.517Z,100242.47
2018-02-19T15:56:20.827Z,100247.23
2018-02-19T15:59:22.183Z,100244.70
2018-02-19T16:02:23.526Z,100245.83
2018-02-19T16:05:24.899Z,100246.37
2018-02-19T16:08:26.232Z,100238.17
2018-02-19T16:11:27.556Z,100244.97
2018-02-19T16:14:28.974Z,100233.43
2018-02-19T16:17:30.282Z,100238.34
2018-02-19T16:20:31.590Z,100239.53
2018-02-19T16:23:32.927Z,100245.63
2018-02-19T16:26:35.015Z,100239.53
2018-02-19T16:29:36.379Z,100248.75
2018-02-19T16:32:38.478Z,100238.30
2018-02-19T16:35:40.574Z,100238.78
2018-02-19T16:38:42.667Z,100236.98
2018-02-19T16:41:43.989Z,100234.07
2018-02-19T16:44:45.328Z,100230.60
2018-02-19T16:47:47.388Z,100234.18
2018-02-19T16:50:48.727Z,100230.30
2018-02-19T16:53:50.033Z,100238.20
2018-02-19T16:56:51.371Z,100233.95
2018-02-19T16:59:53.441Z,100239.70
2018-02-19T17:02:54.788Z,100236.28
2018-02-19T17:05:56.130Z,100238.48
2018-02-19T17:08:58.195Z,100241.11
2018-02-19T17:11:59.529Z,100238.95
2018-02-19T17:15:00.867Z,100244.22
2018-02-19T17:18:02.176Z,100242.92
2018-02-19T17:21:04.268Z,100238.12
2018-02-19T17:24:06.327Z,100247.30
2018-02-19T17:27:07.693Z,100249.50
2018-02-19T17:30:09.058Z,100249.06
2018-02-19T17:33:10.380Z,100244.69
2018-02-19T17:36:11.775Z,100250.82
2018-02-19T17:39:13.294Z,100252.58
2018-02-19T17:42:14.611Z,100253.89
2018-02-19T17:45:15.940Z,100245.13
2018-02-19T17:48:17.251Z,100250.39
2018-02-19T17:51:18.576Z,100245.57
2018-02-19T17:54:19.899Z,100249.06
2018-02-19T17:57:21.256Z,100244.25
2018-02-19T18:00:23.339Z,100245.13
2018-02-19T18:03:25.402Z,100240.31
2018-02-19T18:06:26.757Z,100244.67
2018-02-19T18:09:28.091Z,100241.20
2018-02-19T18:12:29.434Z,100250.39
2018-02-19T18:15:30.764Z,100254.34
2018-02-19T18:18:32.812Z,100253.47
2018-02-19T18:21:34.140Z,100246.03
2018-02-19T18:24:36.280Z,100247.78
2018-02-19T18:27:37.607Z,100244.28
2018-02-19T18:30:38.988Z,100250.86
2018-02-19T18:33:40.302Z,100236.83
2018-02-19T18:36:41.866Z,100246.45
2018-02-19T18:39:46.767Z,100245.59
2018-02-19T18:42:48.108Z,100244.28
2018-02-19T18:45:50.209Z,100247.33
2018-02-19T18:48:52.298Z,100255.22
2018-02-19T18:51:54.376Z,100243.82
2018-02-19T18:54:55.681Z,100250.37
2018-02-19T18:57:57.723Z,100252.59
2018-02-19T19:00:59.053Z,100246.45
2018-02-19T19:04:00.895Z,100256.96
2018-02-19T19:07:02.240Z,100228.48
2018-02-19T19:10:23.184Z,100253.91
2018-02-19T19:13:24.765Z,100250.80
2018-02-19T19:16:27.230Z,100250.83
2018-02-19T19:19:28.544Z,100256.05
2018-02-19T19:22:30.810Z,100244.23
2018-02-19T19:25:32.116Z,100252.12
2018-02-19T19:28:33.445Z,100246.86
2018-02-19T19:31:35.118Z,100245.10
2018-02-19T19:34:36.602Z,100254.27
2018-02-19T19:37:37.908Z,100255.14
2018-02-19T19:40:39.339Z,100262.56
2018-02-19T19:43:40.773Z,100255.56
2018-02-19T19:46:42.148Z,100263.42
2018-02-19T19:49:43.594Z,100254.67
2018-02-19T19:52:45.706Z,100254.65
2018-02-19T19:58:55.622Z,100255.97
2018-02-19T20:01:57.874Z,100250.31
2018-02-19T20:04:59.163Z,100252.05
2018-02-19T20:08:00.573Z,100238.92
2018-02-19T20:11:02.031Z,100247.63
2018-02-19T20:14:03.375Z,100245.50
2018-02-19T20:17:04.692Z,100248.93
2018-02-19T20:20:06.425Z,100258.16
2018-02-19T20:23:07.999Z,100262.08
2018-02-19T20:26:10.354Z,100254.63
2018-02-19T20:29:11.727Z,100255.09
2018-02-19T20:32:13.537Z,100265.58
2018-02-19T20:35:15.529Z,100251.57
2018-02-19T20:38:16.860Z,100256.39
2018-02-19T20:41:18.984Z,100250.69
2018-02-19T20:44:21.440Z,100249.83
2018-02-19T20:47:23.411Z,100253.80
2018-02-19T20:50:25.911Z,100248.99
2018-02-19T20:53:27.207Z,100251.16
2018-02-19T20:56:29.096Z,100254.20
2018-02-19T20:59:30.575Z,100233.67
2018-02-19T21:02:32.079Z,100241.98
2018-02-19T21:05:34.983Z,100245.50
2018-02-19T21:08:36.629Z,100243.75
2018-02-19T21:11:38.288Z,100238.05
2018-02-19T21:14:41.225Z,100230.17
2018-02-19T21:17:43.668Z,100238.45
2018-02-19T21:20:46.811Z,100233.61
2018-02-19T21:23:48.433Z,100231.95
2018-02-19T21:26:50.306Z,100230.97
2018-02-19T21:29:52.209Z,100226.59
2018-02-19T21:32:54.371Z,100217.83
2018-02-19T21:35:55.734Z,100224.80
2018-02-19T21:38:57.184Z,100226.02
2018-02-19T21:41:58.928Z,100219.05
2018-02-19T21:45:00.520Z,100218.61
2018-02-19T21:48:01.921Z,100222.09
2018-02-19T21:51:03.394Z,100215.94
2018-02-19T21:54:05.572Z,100218.52
2018-02-19T21:57:06.995Z,100207.13
2018-02-19T22:00:09.167Z,100212.33
2018-02-19T22:03:10.669Z,100204.47
2018-02-19T22:06:12.060Z,100207.91
2018-02-19T22:09:13.403Z,100211.39
2018-02-19T22:12:14.839Z,100206.10
2018-02-19T22:15:16.302Z,100199.06
2018-02-19T22:18:17.622Z,100204.77
2018-02-19T22:21:18.950Z,100205.20
2018-02-19T22:24:21.029Z,100189.02
2018-02-19T22:27:22.436Z,100212.14
2018-02-19T22:30:24.326Z,100218.67
2018-02-19T22:33:26.966Z,100214.79
2018-02-19T22:36:30.228Z,100207.68
2018-02-19T22:39:31.618Z,100209.02
2018-02-19T22:42:32.955Z,100206.81
2018-02-19T22:45:35.054Z,100198.48
2018-02-19T22:48:37.641Z,100202.05
2018-02-19T22:51:39.459Z,100209.45
2018-02-19T22:54:41.180Z,100217.23
2018-02-19T22:57:42.557Z,100216.36
2018-02-19T23:00:43.919Z,100219.38
2018-02-19T23:03:46.066Z,100226.29
2018-02-19T23:06:47.403Z,100228.48
2018-02-19T23:09:49.483Z,100224.56
2018-02-19T23:12:51.542Z,100222.77
2018-02-19T23:15:52.924Z,100225.94
2018-02-19T23:18:54.278Z,100236.30
2018-02-19T23:21:55.650Z,100234.19
2018-02-19T23:24:56.951Z,100243.82
2018-02-19T23:27:58.323Z,100248.52
2018-02-19T23:30:59.623Z,100240.67
2018-02-19T23:34:01.015Z,100234.14
2018-02-19T23:37:02.375Z,100237.53
2018-02-19T23:40:03.758Z,100229.22
2018-02-19T23:43:05.152Z,100222.31
2018-02-19T23:46:06.515Z,100220.10
2018-02-19T23:49:07.861Z,100221.41
2018-02-19T23:52:09.989Z,100215.30
2018-02-19T23:55:11.338Z,100210.75
2018-02-19T23:58:13.482Z,100216.53
